sensor_id;sensor_type;location;lat;lon;timestamp;P1;durP1;ratioP1;P2;durP2;ratioP2
40058;SDS011;25763;49.972;8.568;2022-09-11T00:01:03;11.77;;;11.07;;
40058;SDS011;25763;49.972;8.568;2022-09-11T00:03:29;12.35;;;11.65;;
40058;SDS011;25763;49.972;8.568;2022-09-11T00:05:55;14.13;;;13.23;;
40058;SDS011;25763;49.972;8.568;2022-09-11T00:08:25;11.48;;;10.77;;
40058;SDS011;25763;49.972;8.568;2022-09-11T00:10:51;12.75;;;12.00;;
40058;SDS011;25763;49.972;8.568;2022-09-11T00:13:18;12.57;;;11.77;;
40058;SDS011;25763;49.972;8.568;2022-09-11T00:15:46;13.35;;;12.40;;
40058;SDS011;25763;49.972;8.568;2022-09-11T00:18:15;13.68;;;12.88;;
40058;SDS011;25763;49.972;8.568;2022-09-11T00:20:46;12.98;;;12.18;;
40058;SDS011;25763;49.972;8.568;2022-09-11T00:23:22;12.75;;;11.95;;
40058;SDS011;25763;49.972;8.568;2022-09-11T00:25:50;14.02;;;13.23;;
40058;SDS011;25763;49.972;8.568;2022-09-11T00:28:17;13.25;;;12.45;;
40058;SDS011;25763;49.972;8.568;2022-09-11T00:30:45;12.35;;;11.65;;
40058;SDS011;25763;49.972;8.568;2022-09-11T00:33:13;13.32;;;12.52;;
40058;SDS011;25763;49.972;8.568;2022-09-11T00:35:40;12.73;;;11.95;;
40058;SDS011;25763;49.972;8.568;2022-09-11T00:38:06;13.70;;;12.90;;
40058;SDS011;25763;49.972;8.568;2022-09-11T00:40:33;13.93;;;13.10;;
40058;SDS011;25763;49.972;8.568;2022-09-11T00:43:10;12.70;;;11.95;;
40058;SDS011;25763;49.972;8.568;2022-09-11T00:45:42;13.20;;;12.40;;
40058;SDS011;25763;49.972;8.568;2022-09-11T00:48:09;13.50;;;12.70;;
40058;SDS011;25763;49.972;8.568;2022-09-11T00:50:35;14.23;;;13.32;;
40058;SDS011;25763;49.972;8.568;2022-09-11T00:53:02;15.50;;;14.60;;
40058;SDS011;25763;49.972;8.568;2022-09-11T00:55:32;14.20;;;13.40;;
40058;SDS011;25763;49.972;8.568;2022-09-11T00:58:05;13.10;;;12.30;;
40058;SDS011;25763;49.972;8.568;2022-09-11T01:00:33;16.27;;;15.27;;
40058;SDS011;25763;49.972;8.568;2022-09-11T01:02:59;12.15;;;11.45;;
40058;SDS011;25763;49.972;8.568;2022-09-11T01:05:26;12.80;;;12.02;;
40058;SDS011;25763;49.972;8.568;2022-09-11T01:07:58;9.05;;;8.35;;
40058;SDS011;25763;49.972;8.568;2022-09-11T01:10:26;8.27;;;7.68;;
40058;SDS011;25763;49.972;8.568;2022-09-11T01:13:17;8.30;;;7.70;;
40058;SDS011;25763;49.972;8.568;2022-09-11T01:18:52;8.02;;;7.43;;
40058;SDS011;25763;49.972;8.568;2022-09-11T01:30:11;8.65;;;7.90;;
40058;SDS011;25763;49.972;8.568;2022-09-11T01:32:56;7.35;;;6.85;;
40058;SDS011;25763;49.972;8.568;2022-09-11T01:35:39;8.77;;;8.15;;
40058;SDS011;25763;49.972;8.568;2022-09-11T01:38:13;8.85;;;8.25;;
40058;SDS011;25763;49.972;8.568;2022-09-11T01:40:53;7.75;;;7.22;;
40058;SDS011;25763;49.972;8.568;2022-09-11T01:43:33;9.93;;;9.23;;
40058;SDS011;25763;49.972;8.568;2022-09-11T01:46:02;9.43;;;8.75;;
40058;SDS011;25763;49.972;8.568;2022-09-11T01:48:36;9.05;;;8.45;;
40058;SDS011;25763;49.972;8.568;2022-09-11T01:51:05;9.63;;;8.82;;
40058;SDS011;25763;49.972;8.568;2022-09-11T01:53:34;8.45;;;7.85;;
40058;SDS011;25763;49.972;8.568;2022-09-11T01:56:06;8.50;;;7.90;;
40058;SDS011;25763;49.972;8.568;2022-09-11T01:58:40;8.70;;;8.10;;
40058;SDS011;25763;49.972;8.568;2022-09-11T02:01:11;7.78;;;7.28;;
40058;SDS011;25763;49.972;8.568;2022-09-11T02:03:44;10.65;;;9.95;;
40058;SDS011;25763;49.972;8.568;2022-09-11T02:08:49;10.88;;;9.98;;
40058;SDS011;25763;49.972;8.568;2022-09-11T02:11:17;11.18;;;10.48;;
40058;SDS011;25763;49.972;8.568;2022-09-11T02:19:29;10.77;;;10.07;;
40058;SDS011;25763;49.972;8.568;2022-09-11T02:21:55;11.20;;;10.50;;
40058;SDS011;25763;49.972;8.568;2022-09-11T02:24:22;10.98;;;10.27;;
40058;SDS011;25763;49.972;8.568;2022-09-11T02:27:02;9.45;;;8.85;;
40058;SDS011;25763;49.972;8.568;2022-09-11T02:29:30;10.35;;;9.65;;
40058;SDS011;25763;49.972;8.568;2022-09-11T02:31:56;10.93;;;10.23;;
40058;SDS011;25763;49.972;8.568;2022-09-11T02:34:25;11.77;;;11.07;;
40058;SDS011;25763;49.972;8.568;2022-09-11T02:42:43;9.98;;;9.35;;
40058;SDS011;25763;49.972;8.568;2022-09-11T02:51:12;11.77;;;10.98;;
40058;SDS011;25763;49.972;8.568;2022-09-11T02:53:47;11.00;;;10.30;;
40058;SDS011;25763;49.972;8.568;2022-09-11T02:58:57;11.02;;;10.32;;
40058;SDS011;25763;49.972;8.568;2022-09-11T03:01:26;11.07;;;10.38;;
40058;SDS011;25763;49.972;8.568;2022-09-11T03:03:51;12.27;;;11.27;;
40058;SDS011;25763;49.972;8.568;2022-09-11T03:06:18;11.30;;;10.52;;
40058;SDS011;25763;49.972;8.568;2022-09-11T03:08:45;11.80;;;10.98;;
40058;SDS011;25763;49.972;8.568;2022-09-11T03:11:11;11.75;;;10.52;;
40058;SDS011;25763;49.972;8.568;2022-09-11T03:13:39;11.55;;;10.77;;
40058;SDS011;25763;49.972;8.568;2022-09-11T03:16:05;11.75;;;10.98;;
40058;SDS011;25763;49.972;8.568;2022-09-11T03:18:30;13.02;;;12.02;;
40058;SDS011;25763;49.972;8.568;2022-09-11T03:20:56;12.90;;;12.02;;
40058;SDS011;25763;49.972;8.568;2022-09-11T03:23:22;10.27;;;9.57;;
40058;SDS011;25763;49.972;8.568;2022-09-11T03:25:47;10.20;;;9.40;;
40058;SDS011;25763;49.972;8.568;2022-09-11T03:28:13;11.70;;;10.90;;
40058;SDS011;25763;49.972;8.568;2022-09-11T03:30:38;11.15;;;10.40;;
40058;SDS011;25763;49.972;8.568;2022-09-11T03:33:05;10.52;;;9.82;;
40058;SDS011;25763;49.972;8.568;2022-09-11T03:35:31;10.23;;;9.50;;
40058;SDS011;25763;49.972;8.568;2022-09-11T03:37:57;10.38;;;9.68;;
40058;SDS011;25763;49.972;8.568;2022-09-11T03:40:22;10.90;;;10.20;;
40058;SDS011;25763;49.972;8.568;2022-09-11T03:42:48;10.25;;;9.63;;
40058;SDS011;25763;49.972;8.568;2022-09-11T03:45:13;12.48;;;11.60;;
40058;SDS011;25763;49.972;8.568;2022-09-11T03:47:39;11.82;;;11.02;;
40058;SDS011;25763;49.972;8.568;2022-09-11T03:50:08;11.48;;;10.65;;
40058;SDS011;25763;49.972;8.568;2022-09-11T03:52:34;10.98;;;10.18;;
40058;SDS011;25763;49.972;8.568;2022-09-11T03:55:00;10.82;;;10.13;;
40058;SDS011;25763;49.972;8.568;2022-09-11T03:57:26;12.27;;;11.27;;
40058;SDS011;25763;49.972;8.568;2022-09-11T03:59:51;12.02;;;11.18;;
40058;SDS011;25763;49.972;8.568;2022-09-11T04:02:18;10.85;;;10.15;;
40058;SDS011;25763;49.972;8.568;2022-09-11T04:04:43;11.07;;;10.27;;
40058;SDS011;25763;49.972;8.568;2022-09-11T04:07:08;10.95;;;10.25;;
40058;SDS011;25763;49.972;8.568;2022-09-11T04:09:34;11.90;;;11.10;;
40058;SDS011;25763;49.972;8.568;2022-09-11T04:12:00;10.93;;;10.23;;
40058;SDS011;25763;49.972;8.568;2022-09-11T04:14:26;11.10;;;10.32;;
40058;SDS011;25763;49.972;8.568;2022-09-11T04:16:52;10.90;;;10.10;;
40058;SDS011;25763;49.972;8.568;2022-09-11T04:19:18;10.50;;;9.80;;
40058;SDS011;25763;49.972;8.568;2022-09-11T04:21:45;11.35;;;10.57;;
40058;SDS011;25763;49.972;8.568;2022-09-11T04:24:10;10.57;;;9.88;;
40058;SDS011;25763;49.972;8.568;2022-09-11T04:26:35;11.02;;;10.13;;
40058;SDS011;25763;49.972;8.568;2022-09-11T04:29:01;11.60;;;10.70;;
40058;SDS011;25763;49.972;8.568;2022-09-11T04:31:26;11.75;;;10.95;;
40058;SDS011;25763;49.972;8.568;2022-09-11T04:33:52;12.25;;;11.38;;
40058;SDS011;25763;49.972;8.568;2022-09-11T04:36:18;10.82;;;10.13;;
40058;SDS011;25763;49.972;8.568;2022-09-11T04:38:46;11.35;;;10.45;;
40058;SDS011;25763;49.972;8.568;2022-09-11T04:41:12;11.25;;;10.45;;
40058;SDS011;25763;49.972;8.568;2022-09-11T04:43:38;13.40;;;12.35;;
40058;SDS011;25763;49.972;8.568;2022-09-11T04:46:05;11.00;;;10.25;;
40058;SDS011;25763;49.972;8.568;2022-09-11T04:48:32;11.90;;;11.02;;
40058;SDS011;25763;49.972;8.568;2022-09-11T04:51:02;12.50;;;11.60;;
40058;SDS011;25763;49.972;8.568;2022-09-11T04:53:29;10.32;;;9.65;;
40058;SDS011;25763;49.972;8.568;2022-09-11T04:56:09;11.60;;;10.60;;
40058;SDS011;25763;49.972;8.568;2022-09-11T04:58:37;20.10;;;12.13;;
40058;SDS011;25763;49.972;8.568;2022-09-11T05:01:07;11.32;;;10.50;;
40058;SDS011;25763;49.972;8.568;2022-09-11T05:03:34;10.98;;;10.18;;
40058;SDS011;25763;49.972;8.568;2022-09-11T05:06:03;11.50;;;10.65;;
40058;SDS011;25763;49.972;8.568;2022-09-11T05:08:32;11.88;;;11.07;;
40058;SDS011;25763;49.972;8.568;2022-09-11T05:10:58;11.63;;;10.82;;
40058;SDS011;25763;49.972;8.568;2022-09-11T05:13:25;12.55;;;11.70;;
40058;SDS011;25763;49.972;8.568;2022-09-11T05:15:51;11.55;;;10.75;;
40058;SDS011;25763;49.972;8.568;2022-09-11T05:18:16;11.90;;;11.10;;
40058;SDS011;25763;49.972;8.568;2022-09-11T05:20:41;11.05;;;10.25;;
40058;SDS011;25763;49.972;8.568;2022-09-11T05:23:09;13.05;;;11.93;;
40058;SDS011;25763;49.972;8.568;2022-09-11T05:25:36;11.20;;;10.40;;
40058;SDS011;25763;49.972;8.568;2022-09-11T05:28:02;10.57;;;9.88;;
40058;SDS011;25763;49.972;8.568;2022-09-11T05:30:28;11.88;;;10.98;;
40058;SDS011;25763;49.972;8.568;2022-09-11T05:32:53;11.73;;;11.02;;
40058;SDS011;25763;49.972;8.568;2022-09-11T05:35:19;12.10;;;11.20;;
40058;SDS011;25763;49.972;8.568;2022-09-11T05:37:48;11.70;;;10.90;;
40058;SDS011;25763;49.972;8.568;2022-09-11T05:40:14;11.45;;;10.65;;
40058;SDS011;25763;49.972;8.568;2022-09-11T05:42:40;13.35;;;12.23;;
40058;SDS011;25763;49.972;8.568;2022-09-11T05:45:05;14.32;;;13.10;;
40058;SDS011;25763;49.972;8.568;2022-09-11T05:47:31;12.10;;;11.30;;
40058;SDS011;25763;49.972;8.568;2022-09-11T05:49:57;13.32;;;12.38;;
40058;SDS011;25763;49.972;8.568;2022-09-11T05:52:22;12.40;;;11.50;;
40058;SDS011;25763;49.972;8.568;2022-09-11T05:54:48;12.88;;;11.98;;
40058;SDS011;25763;49.972;8.568;2022-09-11T05:57:14;12.20;;;11.30;;
40058;SDS011;25763;49.972;8.568;2022-09-11T05:59:39;11.70;;;10.90;;
40058;SDS011;25763;49.972;8.568;2022-09-11T06:02:04;13.82;;;12.77;;
40058;SDS011;25763;49.972;8.568;2022-09-11T06:04:30;13.07;;;12.05;;
40058;SDS011;25763;49.972;8.568;2022-09-11T06:06:56;14.25;;;13.05;;
40058;SDS011;25763;49.972;8.568;2022-09-11T06:09:21;13.32;;;12.35;;
40058;SDS011;25763;49.972;8.568;2022-09-11T06:11:46;11.93;;;10.93;;
40058;SDS011;25763;49.972;8.568;2022-09-11T06:14:11;13.00;;;11.93;;
40058;SDS011;25763;49.972;8.568;2022-09-11T06:16:37;12.55;;;11.55;;
40058;SDS011;25763;49.972;8.568;2022-09-11T06:19:03;12.13;;;11.25;;
40058;SDS011;25763;49.972;8.568;2022-09-11T06:21:28;13.40;;;12.32;;
40058;SDS011;25763;49.972;8.568;2022-09-11T06:23:55;11.98;;;11.07;;
40058;SDS011;25763;49.972;8.568;2022-09-11T06:26:22;13.50;;;12.15;;
40058;SDS011;25763;49.972;8.568;2022-09-11T06:28:49;13.13;;;12.02;;
40058;SDS011;25763;49.972;8.568;2022-09-11T06:31:16;13.25;;;12.35;;
40058;SDS011;25763;49.972;8.568;2022-09-11T06:33:44;14.23;;;13.07;;
40058;SDS011;25763;49.972;8.568;2022-09-11T06:36:14;11.63;;;10.90;;
40058;SDS011;25763;49.972;8.568;2022-09-11T06:38:41;13.23;;;12.02;;
40058;SDS011;25763;49.972;8.568;2022-09-11T06:41:09;11.95;;;11.15;;
40058;SDS011;25763;49.972;8.568;2022-09-11T06:43:38;11.98;;;11.00;;
40058;SDS011;25763;49.972;8.568;2022-09-11T06:46:04;11.25;;;10.45;;
40058;SDS011;25763;49.972;8.568;2022-09-11T06:48:36;12.32;;;11.43;;
40058;SDS011;25763;49.972;8.568;2022-09-11T06:51:03;12.30;;;11.30;;
40058;SDS011;25763;49.972;8.568;2022-09-11T06:53:29;12.20;;;11.30;;
40058;SDS011;25763;49.972;8.568;2022-09-11T06:56:01;9.85;;;9.15;;
40058;SDS011;25763;49.972;8.568;2022-09-11T06:58:29;11.38;;;10.52;;
40058;SDS011;25763;49.972;8.568;2022-09-11T07:00:55;10.32;;;9.52;;
40058;SDS011;25763;49.972;8.568;2022-09-11T07:05:51;12.25;;;11.32;;
40058;SDS011;25763;49.972;8.568;2022-09-11T07:08:16;13.32;;;12.13;;
40058;SDS011;25763;49.972;8.568;2022-09-11T07:10:42;12.10;;;10.98;;
40058;SDS011;25763;49.972;8.568;2022-09-11T07:13:07;12.05;;;10.77;;
40058;SDS011;25763;49.972;8.568;2022-09-11T07:15:32;10.73;;;9.88;;
40058;SDS011;25763;49.972;8.568;2022-09-11T07:17:58;13.32;;;12.18;;
40058;SDS011;25763;49.972;8.568;2022-09-11T07:20:26;10.13;;;9.43;;
40058;SDS011;25763;49.972;8.568;2022-09-11T07:22:51;10.93;;;10.07;;
40058;SDS011;25763;49.972;8.568;2022-09-11T07:25:17;11.55;;;10.73;;
40058;SDS011;25763;49.972;8.568;2022-09-11T07:27:42;11.45;;;10.38;;
40058;SDS011;25763;49.972;8.568;2022-09-11T07:30:08;14.80;;;13.63;;
40058;SDS011;25763;49.972;8.568;2022-09-11T07:32:34;16.20;;;15.13;;
40058;SDS011;25763;49.972;8.568;2022-09-11T07:35:01;16.77;;;15.57;;
40058;SDS011;25763;49.972;8.568;2022-09-11T07:37:27;16.98;;;15.55;;
40058;SDS011;25763;49.972;8.568;2022-09-11T07:39:52;20.02;;;18.23;;
40058;SDS011;25763;49.972;8.568;2022-09-11T07:42:17;15.73;;;14.63;;
40058;SDS011;25763;49.972;8.568;2022-09-11T07:44:43;19.40;;;18.20;;
40058;SDS011;25763;49.972;8.568;2022-09-11T07:47:09;21.15;;;19.95;;
40058;SDS011;25763;49.972;8.568;2022-09-11T07:49:34;20.77;;;19.48;;
40058;SDS011;25763;49.972;8.568;2022-09-11T07:52:00;25.45;;;23.75;;
40058;SDS011;25763;49.972;8.568;2022-09-11T07:54:27;19.33;;;18.23;;
40058;SDS011;25763;49.972;8.568;2022-09-11T07:56:53;18.30;;;17.10;;
40058;SDS011;25763;49.972;8.568;2022-09-11T07:59:18;16.73;;;15.63;;
40058;SDS011;25763;49.972;8.568;2022-09-11T08:01:43;27.10;;;25.40;;
40058;SDS011;25763;49.972;8.568;2022-09-11T08:04:10;26.02;;;24.55;;
40058;SDS011;25763;49.972;8.568;2022-09-11T08:06:38;21.00;;;19.48;;
40058;SDS011;25763;49.972;8.568;2022-09-11T08:09:05;19.10;;;18.00;;
40058;SDS011;25763;49.972;8.568;2022-09-11T08:11:35;16.25;;;15.15;;
40058;SDS011;25763;49.972;8.568;2022-09-11T08:14:02;16.80;;;15.57;;
40058;SDS011;25763;49.972;8.568;2022-09-11T08:16:28;17.10;;;16.00;;
40058;SDS011;25763;49.972;8.568;2022-09-11T08:18:54;15.88;;;14.88;;
40058;SDS011;25763;49.972;8.568;2022-09-11T08:21:19;21.45;;;20.15;;
40058;SDS011;25763;49.972;8.568;2022-09-11T08:23:46;19.23;;;17.70;;
40058;SDS011;25763;49.972;8.568;2022-09-11T08:28:50;12.15;;;11.23;;
40058;SDS011;25763;49.972;8.568;2022-09-11T08:31:17;12.35;;;11.50;;
40058;SDS011;25763;49.972;8.568;2022-09-11T08:33:44;14.57;;;13.68;;
40058;SDS011;25763;49.972;8.568;2022-09-11T08:36:10;11.95;;;11.23;;
40058;SDS011;25763;49.972;8.568;2022-09-11T08:38:38;11.88;;;11.00;;
40058;SDS011;25763;49.972;8.568;2022-09-11T08:41:14;11.65;;;10.80;;
40058;SDS011;25763;49.972;8.568;2022-09-11T08:43:50;12.60;;;11.70;;
40058;SDS011;25763;49.972;8.568;2022-09-11T08:46:21;10.48;;;9.48;;
40058;SDS011;25763;49.972;8.568;2022-09-11T08:51:34;9.60;;;8.80;;
40058;SDS011;25763;49.972;8.568;2022-09-11T08:54:00;11.68;;;10.70;;
40058;SDS011;25763;49.972;8.568;2022-09-11T08:56:27;11.68;;;10.60;;
40058;SDS011;25763;49.972;8.568;2022-09-11T09:16:18;14.90;;;13.88;;
40058;SDS011;25763;49.972;8.568;2022-09-11T09:18:54;14.13;;;13.02;;
40058;SDS011;25763;49.972;8.568;2022-09-11T09:21:27;17.60;;;16.20;;
40058;SDS011;25763;49.972;8.568;2022-09-11T09:23:58;16.50;;;15.00;;
40058;SDS011;25763;49.972;8.568;2022-09-11T09:26:32;12.73;;;11.82;;
40058;SDS011;25763;49.972;8.568;2022-09-11T09:29:04;11.15;;;10.43;;
40058;SDS011;25763;49.972;8.568;2022-09-11T09:31:38;13.50;;;11.32;;
40058;SDS011;25763;49.972;8.568;2022-09-11T09:34:06;13.95;;;12.70;;
40058;SDS011;25763;49.972;8.568;2022-09-11T09:39:15;14.57;;;13.48;;
40058;SDS011;25763;49.972;8.568;2022-09-11T09:47:15;14.27;;;13.27;;
40058;SDS011;25763;49.972;8.568;2022-09-11T09:49:41;13.60;;;12.70;;
40058;SDS011;25763;49.972;8.568;2022-09-11T09:54:54;13.02;;;12.13;;
40058;SDS011;25763;49.972;8.568;2022-09-11T09:57:25;15.98;;;14.68;;
40058;SDS011;25763;49.972;8.568;2022-09-11T10:02:55;13.13;;;12.30;;
40058;SDS011;25763;49.972;8.568;2022-09-11T10:05:25;13.27;;;12.30;;
40058;SDS011;25763;49.972;8.568;2022-09-11T10:07:53;16.08;;;15.07;;
40058;SDS011;25763;49.972;8.568;2022-09-11T10:10:33;14.35;;;13.35;;
40058;SDS011;25763;49.972;8.568;2022-09-11T10:13:01;16.27;;;15.15;;
40058;SDS011;25763;49.972;8.568;2022-09-11T10:15:39;14.90;;;13.77;;
40058;SDS011;25763;49.972;8.568;2022-09-11T10:21:12;16.15;;;15.13;;
40058;SDS011;25763;49.972;8.568;2022-09-11T10:23:51;12.85;;;11.93;;
40058;SDS011;25763;49.972;8.568;2022-09-11T10:26:22;13.73;;;12.60;;
40058;SDS011;25763;49.972;8.568;2022-09-11T10:29:26;13.23;;;12.32;;
40058;SDS011;25763;49.972;8.568;2022-09-11T10:31:54;12.95;;;12.15;;
40058;SDS011;25763;49.972;8.568;2022-09-11T10:34:23;12.82;;;11.93;;
40058;SDS011;25763;49.972;8.568;2022-09-11T10:37:00;12.85;;;11.68;;
40058;SDS011;25763;49.972;8.568;2022-09-11T10:39:29;11.38;;;10.57;;
40058;SDS011;25763;49.972;8.568;2022-09-11T10:41:57;14.50;;;13.50;;
40058;SDS011;25763;49.972;8.568;2022-09-11T10:44:28;13.13;;;12.15;;
40058;SDS011;25763;49.972;8.568;2022-09-11T10:47:12;13.55;;;12.65;;
40058;SDS011;25763;49.972;8.568;2022-09-11T10:49:40;11.85;;;11.05;;
40058;SDS011;25763;49.972;8.568;2022-09-11T10:54:40;12.57;;;11.60;;
40058;SDS011;25763;49.972;8.568;2022-09-11T10:57:37;10.40;;;9.60;;
40058;SDS011;25763;49.972;8.568;2022-09-11T11:08:19;14.48;;;13.57;;
40058;SDS011;25763;49.972;8.568;2022-09-11T11:11:03;16.38;;;15.38;;
40058;SDS011;25763;49.972;8.568;2022-09-11T11:21:55;16.33;;;15.23;;
40058;SDS011;25763;49.972;8.568;2022-09-11T11:32:54;10.32;;;9.63;;
40058;SDS011;25763;49.972;8.568;2022-09-11T11:38:17;12.60;;;11.80;;
40058;SDS011;25763;49.972;8.568;2022-09-11T11:40:56;13.48;;;12.57;;
40058;SDS011;25763;49.972;8.568;2022-09-11T11:43:31;11.18;;;10.48;;
40058;SDS011;25763;49.972;8.568;2022-09-11T11:46:10;10.35;;;9.68;;
40058;SDS011;25763;49.972;8.568;2022-09-11T11:51:26;10.60;;;9.77;;
40058;SDS011;25763;49.972;8.568;2022-09-11T11:53:59;13.43;;;12.63;;
40058;SDS011;25763;49.972;8.568;2022-09-11T11:56:36;19.42;;;17.80;;
40058;SDS011;25763;49.972;8.568;2022-09-11T11:59:13;17.60;;;16.55;;
40058;SDS011;25763;49.972;8.568;2022-09-11T12:01:54;14.45;;;13.55;;
40058;SDS011;25763;49.972;8.568;2022-09-11T12:07:11;13.07;;;12.27;;
40058;SDS011;25763;49.972;8.568;2022-09-11T12:10:02;16.20;;;15.30;;
40058;SDS011;25763;49.972;8.568;2022-09-11T12:12:30;13.15;;;12.35;;
40058;SDS011;25763;49.972;8.568;2022-09-11T12:17:32;15.40;;;14.40;;
40058;SDS011;25763;49.972;8.568;2022-09-11T12:22:34;12.23;;;11.10;;
40058;SDS011;25763;49.972;8.568;2022-09-11T12:25:49;18.20;;;17.10;;
40058;SDS011;25763;49.972;8.568;2022-09-11T12:28:38;15.63;;;14.63;;
40058;SDS011;25763;49.972;8.568;2022-09-11T12:30:52;13.70;;;12.80;;
40058;SDS011;25763;49.972;8.568;2022-09-11T12:36:04;13.15;;;12.35;;
40058;SDS011;25763;49.972;8.568;2022-09-11T12:38:36;11.60;;;10.90;;
40058;SDS011;25763;49.972;8.568;2022-09-11T12:41:09;13.68;;;12.77;;
40058;SDS011;25763;49.972;8.568;2022-09-11T12:46:07;13.88;;;12.95;;
40058;SDS011;25763;49.972;8.568;2022-09-11T12:48:38;14.88;;;13.98;;
40058;SDS011;25763;49.972;8.568;2022-09-11T12:54:19;8.05;;;7.45;;
40058;SDS011;25763;49.972;8.568;2022-09-11T12:56:50;8.55;;;7.95;;
40058;SDS011;25763;49.972;8.568;2022-09-11T12:59:23;12.95;;;12.15;;
40058;SDS011;25763;49.972;8.568;2022-09-11T13:01:59;9.63;;;8.93;;
40058;SDS011;25763;49.972;8.568;2022-09-11T13:04:26;10.77;;;9.98;;
40058;SDS011;25763;49.972;8.568;2022-09-11T13:06:56;8.67;;;8.03;;
40058;SDS011;25763;49.972;8.568;2022-09-11T13:09:37;11.70;;;10.90;;
40058;SDS011;25763;49.972;8.568;2022-09-11T13:14:48;18.25;;;17.23;;
40058;SDS011;25763;49.972;8.568;2022-09-11T13:17:21;11.70;;;10.90;;
40058;SDS011;25763;49.972;8.568;2022-09-11T13:22:29;9.73;;;9.02;;
40058;SDS011;25763;49.972;8.568;2022-09-11T13:25:03;12.85;;;11.77;;
40058;SDS011;25763;49.972;8.568;2022-09-11T13:27:48;11.10;;;10.30;;
40058;SDS011;25763;49.972;8.568;2022-09-11T13:30:18;11.32;;;10.52;;
40058;SDS011;25763;49.972;8.568;2022-09-11T13:32:46;13.23;;;12.32;;
40058;SDS011;25763;49.972;8.568;2022-09-11T13:35:15;9.73;;;8.93;;
40058;SDS011;25763;49.972;8.568;2022-09-11T13:37:46;21.77;;;20.50;;
40058;SDS011;25763;49.972;8.568;2022-09-11T13:40:23;21.58;;;20.23;;
40058;SDS011;25763;49.972;8.568;2022-09-11T13:42:54;23.42;;;22.10;;
40058;SDS011;25763;49.972;8.568;2022-09-11T13:45:20;14.27;;;13.40;;
40058;SDS011;25763;49.972;8.568;2022-09-11T13:47:48;29.73;;;28.13;;
40058;SDS011;25763;49.972;8.568;2022-09-11T13:50:14;21.30;;;20.08;;
40058;SDS011;25763;49.972;8.568;2022-09-11T13:52:42;24.77;;;23.33;;
40058;SDS011;25763;49.972;8.568;2022-09-11T13:55:10;24.55;;;23.15;;
40058;SDS011;25763;49.972;8.568;2022-09-11T13:57:53;26.17;;;24.75;;
40058;SDS011;25763;49.972;8.568;2022-09-11T14:00:36;23.85;;;22.27;;
40058;SDS011;25763;49.972;8.568;2022-09-11T14:03:10;23.88;;;22.27;;
40058;SDS011;25763;49.972;8.568;2022-09-11T14:05:46;20.75;;;19.60;;
40058;SDS011;25763;49.972;8.568;2022-09-11T14:08:18;16.48;;;15.35;;
40058;SDS011;25763;49.972;8.568;2022-09-11T14:10:49;23.20;;;21.85;;
40058;SDS011;25763;49.972;8.568;2022-09-11T14:13:20;23.60;;;22.20;;
40058;SDS011;25763;49.972;8.568;2022-09-11T14:16:29;26.17;;;24.67;;
40058;SDS011;25763;49.972;8.568;2022-09-11T14:19:00;29.20;;;27.60;;
40058;SDS011;25763;49.972;8.568;2022-09-11T14:21:31;28.40;;;26.88;;
40058;SDS011;25763;49.972;8.568;2022-09-11T14:23:58;22.67;;;21.42;;
40058;SDS011;25763;49.972;8.568;2022-09-11T14:26:45;24.02;;;22.73;;
40058;SDS011;25763;49.972;8.568;2022-09-11T14:29:29;27.13;;;25.63;;
40058;SDS011;25763;49.972;8.568;2022-09-11T14:34:47;16.58;;;15.60;;
40058;SDS011;25763;49.972;8.568;2022-09-11T14:37:12;25.67;;;24.27;;
40058;SDS011;25763;49.972;8.568;2022-09-11T14:39:41;11.65;;;10.95;;
40058;SDS011;25763;49.972;8.568;2022-09-11T14:42:17;12.88;;;12.13;;
40058;SDS011;25763;49.972;8.568;2022-09-11T14:44:45;22.42;;;21.13;;
40058;SDS011;25763;49.972;8.568;2022-09-11T14:47:14;21.77;;;20.52;;
40058;SDS011;25763;49.972;8.568;2022-09-11T14:49:41;10.95;;;10.25;;
40058;SDS011;25763;49.972;8.568;2022-09-11T14:52:14;19.60;;;18.50;;
40058;SDS011;25763;49.972;8.568;2022-09-11T14:54:42;11.85;;;11.10;;
40058;SDS011;25763;49.972;8.568;2022-09-11T14:57:11;11.50;;;10.80;;
40058;SDS011;25763;49.972;8.568;2022-09-11T14:59:47;14.07;;;13.18;;
40058;SDS011;25763;49.972;8.568;2022-09-11T15:02:17;13.15;;;12.30;;
40058;SDS011;25763;49.972;8.568;2022-09-11T15:04:45;14.43;;;13.52;;
40058;SDS011;25763;49.972;8.568;2022-09-11T15:07:12;12.95;;;12.18;;
40058;SDS011;25763;49.972;8.568;2022-09-11T15:09:39;13.63;;;12.80;;
40058;SDS011;25763;49.972;8.568;2022-09-11T15:12:06;12.07;;;11.27;;
40058;SDS011;25763;49.972;8.568;2022-09-11T15:14:32;11.35;;;10.63;;
40058;SDS011;25763;49.972;8.568;2022-09-11T15:16:58;10.90;;;9.93;;
40058;SDS011;25763;49.972;8.568;2022-09-11T15:19:25;12.23;;;11.52;;
40058;SDS011;25763;49.972;8.568;2022-09-11T15:21:51;14.02;;;13.13;;
40058;SDS011;25763;49.972;8.568;2022-09-11T15:24:16;13.88;;;13.07;;
40058;SDS011;25763;49.972;8.568;2022-09-11T15:26:42;12.32;;;11.52;;
40058;SDS011;25763;49.972;8.568;2022-09-11T15:29:07;12.65;;;11.77;;
40058;SDS011;25763;49.972;8.568;2022-09-11T15:31:35;11.43;;;10.73;;
40058;SDS011;25763;49.972;8.568;2022-09-11T15:34:01;14.85;;;13.93;;
40058;SDS011;25763;49.972;8.568;2022-09-11T15:36:29;13.27;;;12.48;;
40058;SDS011;25763;49.972;8.568;2022-09-11T15:38:55;16.63;;;15.60;;
40058;SDS011;25763;49.972;8.568;2022-09-11T15:41:21;15.15;;;14.15;;
40058;SDS011;25763;49.972;8.568;2022-09-11T15:43:49;12.48;;;11.70;;
40058;SDS011;25763;49.972;8.568;2022-09-11T15:46:15;13.85;;;13.05;;
40058;SDS011;25763;49.972;8.568;2022-09-11T15:48:42;15.18;;;13.55;;
40058;SDS011;25763;49.972;8.568;2022-09-11T15:51:09;12.70;;;11.95;;
40058;SDS011;25763;49.972;8.568;2022-09-11T15:53:38;13.50;;;12.70;;
40058;SDS011;25763;49.972;8.568;2022-09-11T15:56:04;14.18;;;13.27;;
40058;SDS011;25763;49.972;8.568;2022-09-11T15:58:32;14.55;;;13.75;;
40058;SDS011;25763;49.972;8.568;2022-09-11T16:00:58;15.85;;;14.90;;
40058;SDS011;25763;49.972;8.568;2022-09-11T16:03:25;14.70;;;13.80;;
40058;SDS011;25763;49.972;8.568;2022-09-11T16:05:51;12.10;;;11.40;;
40058;SDS011;25763;49.972;8.568;2022-09-11T16:08:16;14.40;;;13.57;;
40058;SDS011;25763;49.972;8.568;2022-09-11T16:10:41;13.05;;;12.25;;
40058;SDS011;25763;49.972;8.568;2022-09-11T16:13:07;13.85;;;13.05;;
40058;SDS011;25763;49.972;8.568;2022-09-11T16:15:33;14.07;;;13.23;;
40058;SDS011;25763;49.972;8.568;2022-09-11T16:17:59;12.32;;;11.57;;
40058;SDS011;25763;49.972;8.568;2022-09-11T16:20:25;12.85;;;12.05;;
40058;SDS011;25763;49.972;8.568;2022-09-11T16:22:50;11.88;;;11.07;;
40058;SDS011;25763;49.972;8.568;2022-09-11T16:25:16;12.40;;;11.60;;
40058;SDS011;25763;49.972;8.568;2022-09-11T16:27:43;14.63;;;13.73;;
40058;SDS011;25763;49.972;8.568;2022-09-11T16:30:09;13.40;;;12.30;;
40058;SDS011;25763;49.972;8.568;2022-09-11T16:32:34;12.27;;;11.55;;
40058;SDS011;25763;49.972;8.568;2022-09-11T16:35:03;12.68;;;11.85;;
40058;SDS011;25763;49.972;8.568;2022-09-11T16:37:30;10.55;;;9.90;;
40058;SDS011;25763;49.972;8.568;2022-09-11T16:39:58;12.02;;;11.23;;
40058;SDS011;25763;49.972;8.568;2022-09-11T16:42:25;13.10;;;12.30;;
40058;SDS011;25763;49.972;8.568;2022-09-11T16:44:52;11.98;;;11.23;;
40058;SDS011;25763;49.972;8.568;2022-09-11T16:47:17;17.98;;;16.88;;
40058;SDS011;25763;49.972;8.568;2022-09-11T16:49:44;14.00;;;13.20;;